• Join FlightAware (Why Join?)
  • Login
  • US Flag 
Rudolph Flight #1: Arrived! 
10:29AM EST


 

Airport Tracker/Info


-or-


 

Live Flight TrackerFlight Track Log ✈ UAL1649 ✈ 10-May-2013 ✈ KORD - KSFO

Flight Track Log - Related Links

Times and Time Zones

All times are in EDT time to prevent confusion due to time zone crossing. See the UAL1649 flight status page for this flight to view local times or setup timezone preferences in your user account.

Time Position Orientation Groundspeed Altitude Reporting Facility
EDT Latitude Longitude Course Direction KTS MPH feet Rate Location/Type
10:16PM 42.0260 -87.8930 37° Northeast 181 208 2,400  Level FlightAware
10:16PM 42.0370 -87.9080 315° West 212 244 3,000 2,400 Climbing FlightAware
10:16PM 42.0590 -87.9380 315° West 235 270 4,200 2,280 Climbing FlightAware
10:17PM 42.0770 -87.9640 313° West 259 298 5,100 2,700 Climbing FlightAware
10:17PM 42.0910 -87.9840 313° West 268 308 6,000 3,600 Climbing FlightAware
10:18PM 42.1150 -88.0170 314° West 269 310 7,800 3,900 Climbing FlightAware
10:18PM 42.1200 -88.0280 302° West 272 313 8,300 3,600 Climbing FlightAware
10:18PM 42.1240 -88.0460 287° West 275 316 9,000 3,420 Climbing FlightAware
10:18PM 42.1140 -88.0900 253° West 296 341 10,300 2,760 Climbing FlightAware
10:19PM 42.0860 -88.1670 244° Southwest 331 381 12,000 2,280 Climbing FlightAware
10:20PM 42.0530 -88.2460 241° Southwest 362 417 13,600 2,160 Climbing FlightAware
10:20PM 42.0180 -88.3280 240° Southwest 391 450 14,900 2,520 Climbing FlightAware
10:21PM 41.9780 -88.4190 239° Southwest 390 449 17,200 2,940 Climbing FlightAware
10:22PM 41.9430 -88.5040 241° Southwest 390 449 19,100 2,520 Climbing FlightAware
10:22PM 41.9290 -88.6000 259° West 396 456 20,600 2,220 Climbing FlightAware
10:23PM 41.9170 -88.7110 262° West 401 461 22,300 1,920 Climbing FlightAware
10:24PM 41.9070 -88.8090 262° West 414 476 23,400 1,380 Climbing FlightAware
10:24PM 41.8960 -88.9120 262° West 430 495 24,200 1,320 Climbing FlightAware
10:25PM 41.8860 -89.0350 264° West 441 507 25,300 1,440 Climbing FlightAware
10:26PM 41.8850 -89.1440 269° West 447 514 26,300 1,440 Climbing FlightAware
10:27PM 41.8830 -89.2680 269° West 452 520 27,400 1,800 Climbing FlightAware
10:27PM 41.8810 -89.3820 269° West 444 511 28,900 1,980 Climbing FlightAware
10:28PM 41.8800 -89.4860 269° West 439 505 30,100 1,800 Climbing FlightAware
10:29PM 41.8770 -89.6130 268° West 433 498 31,500 1,680 Climbing FlightAware
10:29PM 41.8750 -89.7180 269° West 432 497 32,500 1,500 Climbing FlightAware
10:30PM 41.8730 -89.8260 269° West 427 491 33,500 1,500 Climbing FlightAware
10:31PM 41.8700 -89.9390 268° West 421 484 34,700 1,440 Climbing FlightAware
10:31PM 41.8680 -90.0490 269° West 417 480 35,600 1,080 Climbing FlightAware
10:32PM 41.8650 -90.1600 268° West 419 482 36,300 960 Climbing FlightAware
10:33PM 41.8630 -90.2780 269° West 417 480 37,100 900 Climbing FlightAware
10:34PM 41.8600 -90.3790 268° West 417 480 37,600 660 Climbing FlightAware
10:34PM 41.8570 -90.4840 268° West 419 482 38,000 240 Climbing FlightAware
10:35PM 41.8540 -90.5970 268° West 422 486 38,000  Level FlightAware
10:36PM 41.8510 -90.7050 268° West 423 487 38,000  Level FlightAware
10:36PM 41.8480 -90.8090 268° West 423 487 38,000  Level FlightAware
10:37PM 41.8450 -90.9070 268° West 423 487 38,000  Level FlightAware
10:38PM 41.8420 -91.0250 268° West 423 487 38,000  Level FlightAware
10:39PM 41.8380 -91.1520 268° West 423 487 38,000  Level FlightAware
10:39PM 41.8340 -91.2550 267° West 423 487 38,000  Level FlightAware
10:40PM 41.8300 -91.3700 267° West 424 488 38,000  Level FlightAware
10:41PM 41.8260 -91.4810 267° West 425 489 38,000  Level FlightAware
10:41PM 41.8220 -91.5960 267° West 426 490 38,000  Level FlightAware
10:42PM 41.8180 -91.7020 267° West 427 491 38,000  Level FlightAware
10:43PM 41.8140 -91.8060 267° West 427 491 38,000  Level FlightAware
10:43PM 41.8100 -91.9130 267° West 427 491 38,000  Level FlightAware
10:44PM 41.8050 -92.0360 267° West 427 491 38,000  Level FlightAware
10:45PM 41.8010 -92.1450 267° West 427 491 38,000  Level FlightAware
10:46PM 41.7960 -92.2550 267° West 425 489 38,000  Level FlightAware
10:46PM 41.7920 -92.3600 267° West 423 487 38,000  Level FlightAware
10:47PM 41.7870 -92.4790 267° West 420 483 38,000  Level FlightAware
10:48PM 41.7820 -92.5850 266° West 418 481 38,000  Level FlightAware
10:48PM 41.7770 -92.6860 266° West 417 480 38,000  Level FlightAware
10:49PM 41.7720 -92.7990 267° West 417 480 38,000  Level FlightAware
10:50PM 41.7670 -92.9010 266° West 418 481 38,000  Level FlightAware
10:50PM 41.7620 -93.0220 267° West 421 484 38,000  Level FlightAware
10:51PM 41.7560 -93.1270 266° West 422 486 38,000  Level FlightAware
10:52PM 41.7500 -93.2430 266° West 422 486 38,000  Level FlightAware
10:53PM 41.7450 -93.3450 266° West 421 484 38,000  Level FlightAware
10:53PM 41.7400 -93.4490 266° West 420 483 38,000  Level FlightAware
10:54PM 41.7340 -93.5640 266° West 418 481 38,000  Level FlightAware
10:55PM 41.7280 -93.6700 266° West 416 479 38,000  Level FlightAware
10:55PM 41.7220 -93.7840 266° West 415 478 38,000  Level FlightAware
10:56PM 41.7160 -93.8840 265° West 415 478 38,000  Level FlightAware
10:57PM 41.7100 -93.9860 266° West 415 478 38,000  Level FlightAware
10:57PM 41.7030 -94.1050 266° West 415 478 38,000  Level FlightAware
10:58PM 41.6970 -94.2080 266° West 416 479 38,000  Level FlightAware
10:59PM 41.6910 -94.3090 265° West 417 480 38,000  Level FlightAware
11:00PM 41.6840 -94.4210 265° West 419 482 38,000  Level FlightAware
11:00PM 41.6780 -94.5260 266° West 420 483 38,000  Level FlightAware
11:01PM 41.6710 -94.6420 265° West 422 486 38,000  Level FlightAware
11:02PM 41.6650 -94.7300 265° West 424 488 38,000  Level FlightAware
11:02PM 41.6580 -94.8440 265° West 426 490 38,000  Level FlightAware
11:03PM 41.6500 -94.9700 265° West 428 493 38,000  Level FlightAware
11:04PM 41.6420 -95.0920 265° West 428 493 38,000  Level FlightAware
11:05PM 41.6330 -95.2200 265° West 431 496 38,000  Level FlightAware
11:05PM 41.6260 -95.3110 264° West 430 495 38,000  Level FlightAware
11:06PM 41.6170 -95.4450 265° West 431 496 38,000  Level FlightAware
11:07PM 41.6100 -95.5420 265° West 431 496 38,000  Level FlightAware
11:07PM 41.6030 -95.6320 264° West 431 496 38,000  Level FlightAware
11:08PM 41.5940 -95.7450 264° West 431 496 38,000  Level FlightAware
11:09PM 41.5870 -95.8350 264° West 431 496 38,000  Level FlightAware
11:10PM 41.5800 -95.9250 264° West 431 496 38,000  Level FlightAware
11:10PM 41.5730 -96.0150 264° West 431 496 38,000  Level FlightAware
11:11PM 41.5660 -96.1050 264° West 431 496 38,000  Level FlightAware
11:12PM 41.5580 -96.1950 263° West 431 496 38,000  Level FlightAware
11:12PM 41.5500 -96.3080 265° West 431 496 38,000  Level FlightAware
11:13PM 41.5430 -96.3980 264° West 431 496 38,000  Level FlightAware
11:14PM 41.5350 -96.4880 263° West 431 496 38,000  Level FlightAware
11:14PM 41.5280 -96.5780 264° West 431 496 38,000  Level FlightAware
11:15PM 41.5210 -96.6680 264° West 431 496 38,000  Level FlightAware
11:16PM 41.5120 -96.7810 264° West 431 496 38,000  Level FlightAware
11:17PM 41.4883 -97.0989 264° West 436 502 38,000  Level Minneapolis Center
11:18PM 41.4758 -97.2611 264° West 439 505 38,000  Level Minneapolis Center
11:19PM 41.4589 -97.4539 263° West 438 504 38,000  Level Minneapolis Center
11:20PM 41.4436 -97.6131 263° West 436 502 38,000  Level Minneapolis Center
11:21PM 41.4292 -97.7731 263° West 435 501 38,000  Level Minneapolis Center
11:22PM 41.4150 -97.9325 263° West 435 501 38,000  Level Minneapolis Center
11:23PM 41.4003 -98.0931 263° West 436 502 38,000  Level Minneapolis Center
11:24PM 41.3850 -98.2683 263° West 437 503 38,000  Level Minneapolis Center
11:25PM 41.3731 -98.4275 264° West 436 502 38,000  Level Minneapolis Center
11:26PM 41.3667 -98.5756 267° West 437 503 38,000  Level Minneapolis Center
11:27PM 41.3583 -98.7361 266° West 437 503 38,000  Level Minneapolis Center
11:28PM 41.3525 -98.8975 267° West 437 503 38,000  Level Minneapolis Center
11:29PM 41.3450 -99.0594 267° West 438 504 38,000  Level Minneapolis Center
11:30PM 41.3383 -99.2269 267° West 439 505 38,000  Level Minneapolis Center
11:31PM 41.3283 -99.4206 266° West 440 506 38,000  Level Denver Center
11:32PM 41.3189 -99.6069 266° West 442 509 38,000  Level Denver Center
11:33PM 41.3125 -99.7367 266° West 442 509 38,000  Level Denver Center
11:34PM 41.3019 -99.9431 266° West 441 507 38,000  Level Denver Center
11:35PM 41.2936 -100.0997 266° West 444 511 38,000  Level Denver Center
11:41PM 41.2323 -101.1050 266° West 441 507 38,000  Level FlightAware ADS-B
11:42PM 41.2272 -101.1860 265° West 443 510 38,000  Level FlightAware ADS-B
11:42PM 41.2219 -101.2690 265° West 445 512 38,000  Level FlightAware ADS-B
11:43PM 41.2165 -101.3510 265° West 446 513 38,000  Level FlightAware ADS-B
11:43PM 41.2111 -101.4340 265° West 447 514 38,000  Level FlightAware ADS-B
11:44PM 41.2054 -101.5190 265° West 448 516 38,000  Level FlightAware ADS-B
11:44PM 41.1989 -101.6160 265° West 449 517 38,000  Level FlightAware ADS-B
11:45PM 41.1931 -101.6980 265° West 449 517 38,000  Level FlightAware ADS-B
11:45PM 41.1872 -101.7820 265° West 450 518 38,000  Level FlightAware ADS-B
11:46PM 41.1812 -101.8650 265° West 451 519 38,000  Level FlightAware ADS-B
11:46PM 41.1748 -101.9550 265° West 452 520 38,000  Level FlightAware ADS-B
11:47PM 41.1688 -102.0380 265° West 452 520 38,000  Level FlightAware ADS-B
11:47PM 41.1628 -102.1220 265° West 451 519 38,000  Level FlightAware ADS-B
11:48PM 41.1566 -102.2070 264° West 452 520 38,000  Level FlightAware ADS-B
11:48PM 41.1505 -102.2890 264° West 452 520 38,000  Level FlightAware ADS-B
11:49PM 41.1440 -102.3770 264° West 452 520 38,000  Level FlightAware ADS-B
11:50PM 41.1374 -102.4640 264° West 451 519 38,000  Level FlightAware ADS-B
11:50PM 41.1309 -102.5480 264° West 452 520 38,000  Level FlightAware ADS-B
11:51PM 41.1244 -102.6320 264° West 453 521 38,000  Level FlightAware ADS-B
11:51PM 41.1178 -102.7170 264° West 453 521 38,000  Level FlightAware ADS-B
11:52PM 41.1112 -102.8020 264° West 453 521 38,000  Level FlightAware ADS-B
11:52PM 41.1045 -102.8870 264° West 454 522 38,000  Level FlightAware ADS-B
11:53PM 41.0986 -102.9590 264° West 454 522 38,000  Level FlightAware ADS-B
11:53PM 41.0932 -103.0010 260° West 456 525 38,000  Level FlightAware ADS-B
11:53PM 41.0782 -103.0830 256° West 457 526 38,000  Level FlightAware ADS-B
11:54PM 41.0632 -103.1640 256° West 456 525 38,000  Level FlightAware ADS-B
11:54PM 41.0473 -103.2500 256° West 456 525 38,000  Level FlightAware ADS-B
11:55PM 41.0315 -103.3340 256° West 457 526 38,000  Level FlightAware ADS-B
11:55PM 41.0162 -103.4160 256° West 457 526 38,000  Level FlightAware ADS-B
11:56PM 41.0007 -103.4980 256° West 458 527 38,000  Level FlightAware ADS-B
11:56PM 40.9852 -103.5800 256° West 458 527 38,000  Level FlightAware ADS-B
11:57PM 40.9696 -103.6610 256° West 459 528 38,000  Level FlightAware ADS-B
11:57PM 40.9540 -103.7440 256° West 459 528 38,000  Level FlightAware ADS-B
11:58PM 40.9398 -103.8180 256° West 461 531 38,000  Level FlightAware ADS-B
11:58PM 40.9235 -103.9030 256° West 460 529 38,000  Level FlightAware ADS-B
11:59PM 40.9075 -103.9860 256° West 460 529 38,000  Level FlightAware ADS-B
11:59PM 40.8913 -104.0690 256° West 462 532 38,000  Level FlightAware ADS-B
12:00AM 40.8753 -104.1510 256° West 462 532 38,000  Level FlightAware ADS-B
12:00AM 40.8592 -104.2330 255° West 464 534 38,000  Level FlightAware ADS-B
12:01AM 40.8428 -104.3160 255° West 464 534 38,000  Level FlightAware ADS-B
12:01AM 40.8269 -104.3980 256° West 465 535 38,000  Level FlightAware ADS-B
12:02AM 40.8104 -104.4820 255° West 464 534 38,000  Level FlightAware ADS-B
12:02AM 40.7938 -104.5640 255° West 465 535 38,000  Level FlightAware ADS-B
12:03AM 40.7775 -104.6460 255° West 465 535 38,000  Level FlightAware ADS-B
12:03AM 40.7611 -104.7280 255° West 464 534 38,000  Level FlightAware ADS-B
12:04AM 40.7377 -104.8440 255° West 465 535 38,000  Level FlightAware ADS-B
12:05AM 40.7195 -104.9340 255° West 465 535 38,000  Level FlightAware ADS-B
12:05AM 40.7028 -105.0160 255° West 464 534 38,000  Level FlightAware ADS-B
12:06AM 40.6857 -105.1000 255° West 463 533 38,000  Level FlightAware ADS-B
12:06AM 40.6687 -105.1830 255° West 462 532 38,000  Level FlightAware ADS-B
12:07AM 40.6518 -105.2650 255° West 461 531 38,000  Level FlightAware ADS-B
12:07AM 40.6349 -105.3460 255° West 463 533 38,000  Level FlightAware ADS-B
12:08AM 40.6139 -105.4480 255° West 465 535 38,000  Level FlightAware ADS-B
12:08AM 40.5960 -105.5340 255° West 467 537 38,000  Level FlightAware ADS-B
12:09AM 40.5640 -105.6860 255° West 467 537 38,000  Level FlightAware
12:10AM 40.5475 -105.7660 255° West 467 537 38,000  Level FlightAware ADS-B
12:10AM 40.5277 -105.8590 254° West 467 537 38,000  Level FlightAware ADS-B
12:11AM 40.5081 -105.9510 254° West 468 539 38,000  Level FlightAware ADS-B
12:12AM 40.4650 -106.1540 254° West 466 536 38,000  Level FlightAware
12:13AM 40.4410 -106.2640 254° West 467 537 38,000  Level FlightAware
12:13AM 40.4180 -106.3710 254° West 467 537 38,000  Level FlightAware
12:14AM 40.3930 -106.4830 254° West 466 536 38,000  Level FlightAware
12:15AM 40.3620 -106.6270 254° West 461 531 38,000  Level FlightAware
12:16AM 40.3420 -106.7180 254° West 461 531 38,000  Level FlightAware
12:16AM 40.3220 -106.8100 254° West 461 531 38,000  Level FlightAware
12:17AM 40.3020 -106.9010 254° West 461 531 38,000  Level FlightAware
12:18AM 40.2770 -107.0150 254° West 461 531 38,000  Level FlightAware
12:19AM 40.2360 -107.1890 253° West 453 521 38,000  Level FlightAware
12:19AM 40.2130 -107.2940 254° West 452 520 38,000  Level FlightAware
12:20AM 40.1850 -107.4150 253° West 453 521 38,000  Level FlightAware
12:21AM 40.1610 -107.5190 253° West 454 522 38,000  Level FlightAware
12:21AM 40.1350 -107.6350 254° West 455 524 38,000  Level FlightAware
12:26AM 40.0030 -108.3610 257° West 460 529 38,000  Level FlightAware
12:27AM 39.9850 -108.4830 259° West 462 532 38,000  Level FlightAware
12:27AM 39.9680 -108.5970 259° West 462 532 38,000  Level FlightAware
12:28AM 39.9490 -108.7200 259° West 460 529 38,000  Level FlightAware
12:29AM 39.9310 -108.8350 258° West 459 528 38,000  Level FlightAware
12:30AM 39.8970 -109.0560 259° West 457 526 38,000  Level FlightAware
12:31AM 39.8800 -109.1630 258° West 457 526 38,000  Level FlightAware
12:32AM 39.8610 -109.2840 258° West 456 525 38,000  Level FlightAware
12:32AM 39.8420 -109.4000 258° West 456 525 38,000  Level FlightAware
12:33AM 39.8230 -109.5210 258° West 456 525 38,000  Level FlightAware
12:34AM 39.8070 -109.6200 258° West 457 526 38,000  Level FlightAware
12:34AM 39.7890 -109.7350 259° West 458 527 38,000  Level FlightAware
12:35AM 39.7700 -109.8480 258° West 459 528 38,000  Level FlightAware
12:36AM 39.7550 -109.9420 258° West 459 528 38,000  Level FlightAware
12:37AM 39.7330 -110.0750 258° West 459 528 38,000  Level FlightAware
12:37AM 39.7130 -110.1910 257° West 458 527 38,000  Level FlightAware
12:38AM 39.6960 -110.2980 258° West 457 526 38,000  Level FlightAware
12:39AM 39.6720 -110.4400 258° West 457 526 38,000  Level FlightAware
12:40AM 39.6510 -110.5590 257° West 458 527 38,000  Level FlightAware
12:40AM 39.6340 -110.6600 258° West 463 533 38,000  Level FlightAware
12:41AM 39.6110 -110.7970 258° West 473 544 38,000  Level FlightAware
12:42AM 39.5950 -110.8920 258° West 475 547 38,000  Level FlightAware
12:42AM 39.5760 -110.9980 257° West 476 548 38,000  Level FlightAware
12:43AM 39.5510 -111.1380 257° West 478 550 38,000  Level FlightAware
12:44AM 39.5300 -111.2560 257° West 479 551 38,000  Level FlightAware
12:45AM 39.5080 -111.3830 257° West 480 552 38,000  Level FlightAware
12:45AM 39.4880 -111.4950 257° West 481 554 38,000  Level FlightAware
12:46AM 39.4640 -111.6250 257° West 481 554 38,000  Level FlightAware
12:47AM 39.4410 -111.7440 256° West 481 554 38,000  Level FlightAware
12:48AM 39.4230 -111.8390 256° West 481 554 38,000  Level FlightAware
12:48AM 39.4040 -111.9340 256° West 481 554 38,000  Level FlightAware
12:49AM 39.3860 -112.0290 256° West 481 554 38,000  Level FlightAware
12:50AM 39.3680 -112.1240 256° West 481 554 38,000  Level FlightAware
12:50AM 39.3450 -112.2420 256° West 481 554 38,000  Level FlightAware
12:51AM 39.3270 -112.3370 256° West 481 554 38,000  Level FlightAware
12:52AM 39.3080 -112.4320 256° West 481 554 38,000  Level FlightAware
12:52AM 39.2900 -112.5270 256° West 481 554 38,000  Level FlightAware
12:53AM 39.2670 -112.6460 256° West 481 554 38,000  Level FlightAware
12:54AM 39.2490 -112.7400 256° West 481 554 38,000  Level FlightAware
12:55AM 39.2300 -112.8350 256° West 481 554 38,000  Level FlightAware
12:55AM 39.2120 -112.9300 256° West 481 554 38,000  Level FlightAware
12:56AM 39.1094 -113.3517 256° West 476 548 38,000  Level Salt Lake Center
12:57AM 39.0714 -113.5150 253° West 480 552 38,000  Level Salt Lake Center
12:58AM 39.0325 -113.6792 253° West 483 556 38,000  Level Salt Lake Center
12:59AM 38.9931 -113.8447 253° West 485 558 38,000  Level Salt Lake Center
01:01AM 38.9464 -114.0397 253° West 481 554 38,000  Level Salt Lake Center
01:02AM 38.9072 -114.2014 253° West 478 550 38,000  Level Salt Lake Center
01:03AM 38.8683 -114.3633 253° West 479 551 38,000  Level Salt Lake Center
01:04AM 38.8300 -114.5236 253° West 475 547 38,000  Level Salt Lake Center
01:05AM 38.7903 -114.6850 253° West 478 550 38,000  Level Salt Lake Center
01:06AM 38.7503 -114.8464 252° West 478 550 38,000  Level Salt Lake Center
01:07AM 38.7097 -115.0092 252° West 482 555 38,000  Level Salt Lake Center
01:08AM 38.6667 -115.1719 251° West 486 559 38,000  Level Salt Lake Center
01:09AM 38.6258 -115.3328 252° West 481 554 38,000  Level Salt Lake Center
01:10AM 38.5861 -115.5047 254° West 471 542 38,000  Level Salt Lake Center
01:11AM 38.5444 -115.6639 252° West 473 544 38,000  Level Salt Lake Center
01:12AM 38.5042 -115.8228 252° West 472 543 38,000  Level Salt Lake Center
01:13AM 38.4619 -115.9806 251° West 469 540 38,000  Level Salt Lake Center
01:14AM 38.4211 -116.1386 252° West 470 541 38,000  Level Oakland Center
01:15AM 38.3806 -116.2947 252° West 465 535 38,000  Level Oakland Center
01:16AM 38.3392 -116.4511 251° West 464 534 38,000  Level Oakland Center
01:17AM 38.2978 -116.6058 251° West 463 533 38,000  Level Oakland Center
01:18AM 38.2561 -116.7614 251° West 464 534 38,000  Level Oakland Center
01:19AM 38.2150 -116.9156 251° West 462 532 38,000  Level Oakland Center
01:20AM 38.1736 -117.0719 251° West 467 537 38,000  Level Oakland Center
01:21AM 38.1303 -117.2278 251° West 473 544 38,000  Level Oakland Center
01:22AM 38.0942 -117.3792 253° West 482 555 38,000  Level Oakland Center
01:23AM 38.0500 -117.5703 254° West 473 544 38,000  Level Oakland Center
01:24AM 38.0119 -117.7308 253° West 475 547 38,000  Level Oakland Center
01:30AM 37.9050 -118.6800 253° West 456 525 38,000  Level FlightAware
01:30AM 37.8940 -118.7840 262° West 454 522 38,000  Level FlightAware
01:31AM 37.8830 -118.8690 261° West 454 522 38,000  Level FlightAware
01:32AM 37.8690 -119.0020 262° West 452 520 38,000  Level FlightAware
01:32AM 37.8560 -119.1120 262° West 453 521 38,000  Level FlightAware
01:33AM 37.8410 -119.2400 262° West 454 522 38,000  Level FlightAware
01:34AM 37.8290 -119.3440 262° West 451 519 38,000  Level FlightAware
01:34AM 37.8170 -119.4460 262° West 450 518 38,000  Level FlightAware
01:35AM 37.8030 -119.5630 261° West 451 519 38,000  Level FlightAware
01:36AM 37.7910 -119.6650 262° West 452 520 38,000  Level FlightAware
01:37AM 37.7760 -119.7860 261° West 452 520 38,000 -180 Level FlightAware
01:37AM 37.7630 -119.8920 261° West 451 519 37,800 -660 Descending FlightAware
01:38AM 37.7490 -120.0040 261° West 453 521 37,100 -1,680 Descending FlightAware
01:39AM 37.7360 -120.1130 261° West 451 519 35,500 -2,700 Descending FlightAware
01:39AM 37.7240 -120.2130 261° West 456 525 33,500 -3,180 Descending FlightAware
01:40AM 37.7080 -120.3340 261° West 457 526 31,000 -3,000 Descending FlightAware
01:41AM 37.6950 -120.4380 261° West 447 514 29,300 -2,520 Descending FlightAware
01:42AM 37.6800 -120.5510 261° West 436 502 27,500 -2,340 Descending FlightAware
01:42AM 37.6690 -120.6380 261° West 427 491 26,000 -2,520 Descending FlightAware
01:43AM 37.6550 -120.7480 261° West 419 482 24,200 -2,520 Descending FlightAware
01:44AM 37.6410 -120.8570 261° West 408 470 22,500 -2,340 Descending FlightAware
01:44AM 37.6280 -120.9500 260° West 397 457 20,900 -2,220 Descending FlightAware
01:45AM 37.6170 -121.0480 262° West 386 444 19,400 -2,100 Descending FlightAware
01:46AM 37.6070 -121.1370 262° West 373 429 18,000 -2,160 Descending FlightAware
01:47AM 37.5940 -121.2530 262° West 367 422 16,000 -2,220 Descending FlightAware
01:47AM 37.5850 -121.3340 262° West 362 417 14,500 -2,280 Descending FlightAware
01:48AM 37.5730 -121.4310 261° West 356 410 12,800 -2,100 Descending FlightAware
01:49AM 37.5660 -121.4980 263° West 350 403 11,700 -1,620 Descending FlightAware
01:49AM 37.5560 -121.5860 262° West 314 361 10,700 -780 Descending FlightAware
01:50AM 37.5490 -121.6600 263° West 272 313 10,600 -420 Descending FlightAware
01:50AM 37.5580 -121.6820 297° West 261 300 10,300 -1,380 Descending FlightAware
01:51AM 37.5790 -121.7190 306° West 257 296 9,600 -1,380 Descending FlightAware
01:51AM 37.5870 -121.7350 302° West 254 292 9,300 -900 Descending FlightAware
01:52AM 37.6050 -121.7670 305° West 252 290 9,000 -600 Descending FlightAware
01:52AM 37.6250 -121.8030 305° West 253 291 8,800 -240 Descending FlightAware
01:52AM 37.6420 -121.8330 306° West 253 291 8,800  Level FlightAware
01:53AM 37.6490 -121.8520 295° West 254 292 8,800  Level FlightAware
01:53AM 37.6390 -121.8930 253° West 251 289 8,800  Level FlightAware
01:53AM 37.6250 -121.9040 212° Southwest 247 284 8,800  Level FlightAware
01:54AM 37.6140 -121.9060 188° South 245 282 8,800  Level FlightAware
01:54AM 37.5850 -121.8890 155° Southeast 222 255 8,800 -240 Level FlightAware
01:55AM 37.5640 -121.8720 147° Southeast 207 238 8,600 -780 Descending FlightAware
01:55AM 37.5530 -121.8630 147° Southeast 207 238 8,300 -1,080 Descending FlightAware
01:55AM 37.5290 -121.8420 145° Southeast 205 236 7,800 -840 Descending FlightAware
01:56AM 37.5150 -121.8370 164° South 205 236 7,700  Descending FlightAware
01:56AM 37.4920 -121.8440 194° South 209 241 7,800 60 Climbing FlightAware
01:56AM 37.4690 -121.8640 215° Southwest 213 245 7,800  Level FlightAware
01:57AM 37.4660 -121.8820 258° West 214 246 7,800  Level FlightAware
01:57AM 37.4650 -121.8950 264° West 213 245 7,800 -180 Level FlightAware
01:57AM 37.4630 -121.9320 266° West 212 244 7,700 -840 Descending FlightAware
01:58AM 37.4600 -121.9670 264° West 213 245 7,000 -780 Descending FlightAware
01:58AM 37.4580 -121.9950 265° West 213 245 7,000 -1,200 Level FlightAware
01:58AM 37.4640 -122.0090 298° West 207 238 6,300 -1,800 Descending FlightAware
01:59AM 37.4790 -122.0420 300° West 204 235 5,800 -840 Descending FlightAware
01:59AM 37.4920 -122.0710 299° West 200 230 5,500 -960 Descending FlightAware
02:00AM 37.5000 -122.0870 302° West 201 231 5,100 -1,500 Descending FlightAware
02:00AM 37.5130 -122.1170 299° West 191 220 4,400 -1,140 Descending FlightAware
02:01AM 37.5210 -122.1370 297° West 175 201 4,100 -1,080 Descending FlightAware
02:01AM 37.5250 -122.1470 297° West 173 199 3,800 -1,380 Descending FlightAware
02:01AM 37.5360 -122.1740 297° West 167 192 3,200 -1,200 Descending FlightAware
02:02AM 37.5410 -122.1860 298° West 163 188 2,900 -1,200 Descending FlightAware
02:02AM 37.5520 -122.2120 298° West 161 185 2,300 -1,080 Descending FlightAware
02:02AM 37.5580 -122.2240 302° West 160 184 2,100 -300 Descending FlightAware
02:03AM 37.5660 -122.2430 298° West 160 184 2,100  Level FlightAware